sensor_id;sensor_type;location;lat;lon;timestamp;P1;durP1;ratioP1;P2;durP2;ratioP2
53751;SDS011;41095;53.090;6.692;2022-11-20T00:01:05;19.17;;;15.55;;
53751;SDS011;41095;53.090;6.692;2022-11-20T00:03:35;20.15;;;16.63;;
53751;SDS011;41095;53.090;6.692;2022-11-20T00:06:02;22.38;;;16.98;;
53751;SDS011;41095;53.090;6.692;2022-11-20T00:08:28;17.25;;;13.90;;
53751;SDS011;41095;53.090;6.692;2022-11-20T00:10:54;18.95;;;14.93;;
53751;SDS011;41095;53.090;6.692;2022-11-20T00:13:20;19.48;;;16.15;;
53751;SDS011;41095;53.090;6.692;2022-11-20T00:15:45;20.70;;;15.40;;
53751;SDS011;41095;53.090;6.692;2022-11-20T00:18:11;18.75;;;14.60;;
53751;SDS011;41095;53.090;6.692;2022-11-20T00:20:37;19.10;;;14.52;;
53751;SDS011;41095;53.090;6.692;2022-11-20T00:23:02;16.75;;;13.80;;
53751;SDS011;41095;53.090;6.692;2022-11-20T00:25:28;18.30;;;14.60;;
53751;SDS011;41095;53.090;6.692;2022-11-20T00:27:53;17.45;;;14.52;;
53751;SDS011;41095;53.090;6.692;2022-11-20T00:30:19;17.60;;;14.38;;
53751;SDS011;41095;53.090;6.692;2022-11-20T00:32:45;14.90;;;12.82;;
53751;SDS011;41095;53.090;6.692;2022-11-20T00:35:10;17.77;;;14.35;;
53751;SDS011;41095;53.090;6.692;2022-11-20T00:37:36;18.27;;;14.02;;
53751;SDS011;41095;53.090;6.692;2022-11-20T00:40:02;16.70;;;13.57;;
53751;SDS011;41095;53.090;6.692;2022-11-20T00:42:27;17.55;;;13.55;;
53751;SDS011;41095;53.090;6.692;2022-11-20T00:44:53;15.43;;;13.82;;
53751;SDS011;41095;53.090;6.692;2022-11-20T00:47:19;15.57;;;12.30;;
53751;SDS011;41095;53.090;6.692;2022-11-20T00:49:45;18.33;;;12.82;;
53751;SDS011;41095;53.090;6.692;2022-11-20T00:52:10;14.90;;;13.35;;
53751;SDS011;41095;53.090;6.692;2022-11-20T00:54:36;12.90;;;11.45;;
53751;SDS011;41095;53.090;6.692;2022-11-20T00:57:01;15.65;;;13.45;;
53751;SDS011;41095;53.090;6.692;2022-11-20T00:59:27;16.08;;;12.40;;
53751;SDS011;41095;53.090;6.692;2022-11-20T01:01:53;14.18;;;10.82;;
53751;SDS011;41095;53.090;6.692;2022-11-20T01:04:18;13.98;;;10.60;;
53751;SDS011;41095;53.090;6.692;2022-11-20T01:06:44;12.75;;;10.20;;
53751;SDS011;41095;53.090;6.692;2022-11-20T01:09:11;11.55;;;9.75;;
53751;SDS011;41095;53.090;6.692;2022-11-20T01:11:39;16.08;;;11.27;;
53751;SDS011;41095;53.090;6.692;2022-11-20T01:14:16;16.33;;;10.93;;
53751;SDS011;41095;53.090;6.692;2022-11-20T01:16:47;14.68;;;11.02;;
53751;SDS011;41095;53.090;6.692;2022-11-20T01:19:19;12.70;;;10.10;;
53751;SDS011;41095;53.090;6.692;2022-11-20T01:21:48;14.52;;;10.35;;
53751;SDS011;41095;53.090;6.692;2022-11-20T01:24:16;17.17;;;11.85;;
53751;SDS011;41095;53.090;6.692;2022-11-20T01:26:43;12.02;;;9.38;;
53751;SDS011;41095;53.090;6.692;2022-11-20T01:29:15;12.30;;;9.38;;
53751;SDS011;41095;53.090;6.692;2022-11-20T01:31:48;13.38;;;9.35;;
53751;SDS011;41095;53.090;6.692;2022-11-20T01:34:18;16.02;;;10.10;;
53751;SDS011;41095;53.090;6.692;2022-11-20T01:36:45;11.75;;;9.00;;
53751;SDS011;41095;53.090;6.692;2022-11-20T01:39:15;12.80;;;10.13;;
53751;SDS011;41095;53.090;6.692;2022-11-20T01:41:43;14.15;;;10.40;;
53751;SDS011;41095;53.090;6.692;2022-11-20T01:47:16;12.50;;;10.40;;
53751;SDS011;41095;53.090;6.692;2022-11-20T01:49:49;15.65;;;10.15;;
53751;SDS011;41095;53.090;6.692;2022-11-20T01:52:20;14.80;;;11.23;;
53751;SDS011;41095;53.090;6.692;2022-11-20T01:55:35;14.18;;;10.48;;
53751;SDS011;41095;53.090;6.692;2022-11-20T01:57:38;12.07;;;9.07;;
53751;SDS011;41095;53.090;6.692;2022-11-20T02:00:11;11.50;;;9.57;;
53751;SDS011;41095;53.090;6.692;2022-11-20T02:02:39;12.23;;;9.45;;
53751;SDS011;41095;53.090;6.692;2022-11-20T02:07:42;14.50;;;10.57;;
53751;SDS011;41095;53.090;6.692;2022-11-20T02:10:09;12.63;;;8.55;;
53751;SDS011;41095;53.090;6.692;2022-11-20T02:12:36;15.63;;;9.88;;
53751;SDS011;41095;53.090;6.692;2022-11-20T02:15:20;13.38;;;9.48;;
53751;SDS011;41095;53.090;6.692;2022-11-20T02:17:45;13.30;;;9.68;;
53751;SDS011;41095;53.090;6.692;2022-11-20T02:20:11;12.32;;;9.80;;
53751;SDS011;41095;53.090;6.692;2022-11-20T02:22:44;12.93;;;10.27;;
53751;SDS011;41095;53.090;6.692;2022-11-20T02:25:35;13.75;;;9.55;;
53751;SDS011;41095;53.090;6.692;2022-11-20T02:28:02;12.20;;;8.52;;
53751;SDS011;41095;53.090;6.692;2022-11-20T02:30:30;14.52;;;10.38;;
53751;SDS011;41095;53.090;6.692;2022-11-20T02:32:55;13.95;;;10.00;;
53751;SDS011;41095;53.090;6.692;2022-11-20T02:37:48;12.38;;;9.68;;
53751;SDS011;41095;53.090;6.692;2022-11-20T02:40:17;14.18;;;10.40;;
53751;SDS011;41095;53.090;6.692;2022-11-20T02:42:43;12.95;;;9.85;;
53751;SDS011;41095;53.090;6.692;2022-11-20T02:45:09;13.50;;;10.48;;
53751;SDS011;41095;53.090;6.692;2022-11-20T02:47:35;11.52;;;8.75;;
53751;SDS011;41095;53.090;6.692;2022-11-20T02:50:00;13.02;;;10.50;;
53751;SDS011;41095;53.090;6.692;2022-11-20T02:52:26;11.07;;;8.60;;
53751;SDS011;41095;53.090;6.692;2022-11-20T02:54:52;12.18;;;8.23;;
53751;SDS011;41095;53.090;6.692;2022-11-20T02:57:18;15.45;;;11.20;;
53751;SDS011;41095;53.090;6.692;2022-11-20T02:59:44;12.27;;;9.70;;
53751;SDS011;41095;53.090;6.692;2022-11-20T03:02:09;15.25;;;10.30;;
53751;SDS011;41095;53.090;6.692;2022-11-20T03:04:35;12.27;;;8.38;;
53751;SDS011;41095;53.090;6.692;2022-11-20T03:07:01;10.55;;;8.75;;
53751;SDS011;41095;53.090;6.692;2022-11-20T03:09:26;12.55;;;8.98;;
53751;SDS011;41095;53.090;6.692;2022-11-20T03:11:52;13.32;;;9.55;;
53751;SDS011;41095;53.090;6.692;2022-11-20T03:14:18;14.25;;;9.85;;
53751;SDS011;41095;53.090;6.692;2022-11-20T03:16:43;13.10;;;11.23;;
53751;SDS011;41095;53.090;6.692;2022-11-20T03:19:09;13.32;;;10.13;;
53751;SDS011;41095;53.090;6.692;2022-11-20T03:21:36;12.77;;;9.45;;
53751;SDS011;41095;53.090;6.692;2022-11-20T03:24:02;10.13;;;7.60;;
53751;SDS011;41095;53.090;6.692;2022-11-20T03:26:28;11.00;;;8.82;;
53751;SDS011;41095;53.090;6.692;2022-11-20T03:28:55;13.07;;;9.80;;
53751;SDS011;41095;53.090;6.692;2022-11-20T03:31:30;13.93;;;10.18;;
53751;SDS011;41095;53.090;6.692;2022-11-20T03:33:57;11.90;;;9.48;;
53751;SDS011;41095;53.090;6.692;2022-11-20T03:36:24;10.25;;;8.38;;
53751;SDS011;41095;53.090;6.692;2022-11-20T03:38:52;11.02;;;8.27;;
53751;SDS011;41095;53.090;6.692;2022-11-20T03:41:20;13.90;;;8.85;;
53751;SDS011;41095;53.090;6.692;2022-11-20T03:43:51;14.10;;;9.93;;
53751;SDS011;41095;53.090;6.692;2022-11-20T03:46:18;15.65;;;10.15;;
53751;SDS011;41095;53.090;6.692;2022-11-20T03:48:45;9.93;;;8.93;;
53751;SDS011;41095;53.090;6.692;2022-11-20T03:51:11;14.88;;;10.18;;
53751;SDS011;41095;53.090;6.692;2022-11-20T03:53:48;13.82;;;10.02;;
53751;SDS011;41095;53.090;6.692;2022-11-20T03:56:16;11.52;;;9.73;;
53751;SDS011;41095;53.090;6.692;2022-11-20T03:58:43;13.05;;;9.07;;
53751;SDS011;41095;53.090;6.692;2022-11-20T04:03:35;16.67;;;10.93;;
53751;SDS011;41095;53.090;6.692;2022-11-20T04:06:05;12.18;;;9.57;;
53751;SDS011;41095;53.090;6.692;2022-11-20T04:11:14;11.88;;;8.88;;
53751;SDS011;41095;53.090;6.692;2022-11-20T04:13:48;12.32;;;10.43;;
53751;SDS011;41095;53.090;6.692;2022-11-20T04:16:15;9.57;;;8.32;;
53751;SDS011;41095;53.090;6.692;2022-11-20T04:18:42;11.88;;;8.35;;
53751;SDS011;41095;53.090;6.692;2022-11-20T04:21:08;11.88;;;8.70;;
53751;SDS011;41095;53.090;6.692;2022-11-20T04:23:34;10.90;;;8.98;;
53751;SDS011;41095;53.090;6.692;2022-11-20T04:26:04;11.73;;;9.18;;
53751;SDS011;41095;53.090;6.692;2022-11-20T04:28:31;12.38;;;9.45;;
53751;SDS011;41095;53.090;6.692;2022-11-20T04:31:07;11.98;;;8.15;;
53751;SDS011;41095;53.090;6.692;2022-11-20T04:33:35;11.55;;;8.50;;
53751;SDS011;41095;53.090;6.692;2022-11-20T04:36:02;10.88;;;8.38;;
53751;SDS011;41095;53.090;6.692;2022-11-20T04:38:29;12.02;;;9.27;;
53751;SDS011;41095;53.090;6.692;2022-11-20T04:40:59;11.93;;;9.15;;
53751;SDS011;41095;53.090;6.692;2022-11-20T04:43:25;10.50;;;8.30;;
53751;SDS011;41095;53.090;6.692;2022-11-20T04:45:55;9.98;;;8.07;;
53751;SDS011;41095;53.090;6.692;2022-11-20T04:48:22;11.45;;;9.48;;
53751;SDS011;41095;53.090;6.692;2022-11-20T04:50:48;12.68;;;9.00;;
53751;SDS011;41095;53.090;6.692;2022-11-20T04:53:14;12.05;;;9.80;;
53751;SDS011;41095;53.090;6.692;2022-11-20T04:55:39;12.63;;;9.15;;
53751;SDS011;41095;53.090;6.692;2022-11-20T04:58:05;12.25;;;9.63;;
53751;SDS011;41095;53.090;6.692;2022-11-20T05:00:31;9.45;;;8.43;;
53751;SDS011;41095;53.090;6.692;2022-11-20T05:02:56;11.98;;;8.95;;
53751;SDS011;41095;53.090;6.692;2022-11-20T05:05:22;13.02;;;8.75;;
53751;SDS011;41095;53.090;6.692;2022-11-20T05:07:48;11.70;;;8.55;;
53751;SDS011;41095;53.090;6.692;2022-11-20T05:10:13;10.02;;;8.27;;
53751;SDS011;41095;53.090;6.692;2022-11-20T05:12:39;9.77;;;8.27;;
53751;SDS011;41095;53.090;6.692;2022-11-20T05:15:05;15.18;;;9.65;;
53751;SDS011;41095;53.090;6.692;2022-11-20T05:17:31;12.10;;;8.52;;
53751;SDS011;41095;53.090;6.692;2022-11-20T05:19:57;11.65;;;8.77;;
53751;SDS011;41095;53.090;6.692;2022-11-20T05:22:22;11.50;;;9.43;;
53751;SDS011;41095;53.090;6.692;2022-11-20T05:24:48;13.98;;;10.20;;
53751;SDS011;41095;53.090;6.692;2022-11-20T05:27:14;12.73;;;9.40;;
53751;SDS011;41095;53.090;6.692;2022-11-20T05:29:40;10.48;;;8.90;;
53751;SDS011;41095;53.090;6.692;2022-11-20T05:32:05;13.00;;;9.63;;
53751;SDS011;41095;53.090;6.692;2022-11-20T05:34:33;11.40;;;8.77;;
53751;SDS011;41095;53.090;6.692;2022-11-20T05:36:59;10.55;;;8.02;;
53751;SDS011;41095;53.090;6.692;2022-11-20T05:39:25;11.05;;;8.10;;
53751;SDS011;41095;53.090;6.692;2022-11-20T05:41:50;12.13;;;8.52;;
53751;SDS011;41095;53.090;6.692;2022-11-20T05:44:36;10.07;;;8.57;;
53751;SDS011;41095;53.090;6.692;2022-11-20T05:47:02;13.25;;;9.55;;
53751;SDS011;41095;53.090;6.692;2022-11-20T05:49:27;11.93;;;8.57;;
53751;SDS011;41095;53.090;6.692;2022-11-20T05:51:53;12.38;;;9.70;;
53751;SDS011;41095;53.090;6.692;2022-11-20T05:54:18;11.10;;;8.23;;
53751;SDS011;41095;53.090;6.692;2022-11-20T05:56:44;11.20;;;8.60;;
53751;SDS011;41095;53.090;6.692;2022-11-20T05:59:10;10.45;;;8.65;;
53751;SDS011;41095;53.090;6.692;2022-11-20T06:01:35;14.82;;;9.85;;
53751;SDS011;41095;53.090;6.692;2022-11-20T06:04:01;13.77;;;10.55;;
53751;SDS011;41095;53.090;6.692;2022-11-20T06:06:27;11.85;;;8.68;;
53751;SDS011;41095;53.090;6.692;2022-11-20T06:08:53;12.38;;;8.60;;
53751;SDS011;41095;53.090;6.692;2022-11-20T06:11:20;8.55;;;7.65;;
53751;SDS011;41095;53.090;6.692;2022-11-20T06:13:46;11.02;;;8.68;;
53751;SDS011;41095;53.090;6.692;2022-11-20T06:16:13;9.38;;;7.38;;
53751;SDS011;41095;53.090;6.692;2022-11-20T06:18:40;10.90;;;8.23;;
53751;SDS011;41095;53.090;6.692;2022-11-20T06:21:10;11.05;;;8.95;;
53751;SDS011;41095;53.090;6.692;2022-11-20T06:23:41;10.52;;;7.82;;
53751;SDS011;41095;53.090;6.692;2022-11-20T06:26:08;12.07;;;8.65;;
53751;SDS011;41095;53.090;6.692;2022-11-20T06:28:54;10.98;;;8.35;;
53751;SDS011;41095;53.090;6.692;2022-11-20T06:31:21;10.48;;;7.97;;
53751;SDS011;41095;53.090;6.692;2022-11-20T06:33:48;9.25;;;7.90;;
53751;SDS011;41095;53.090;6.692;2022-11-20T06:36:15;11.88;;;9.95;;
53751;SDS011;41095;53.090;6.692;2022-11-20T06:38:42;7.22;;;6.43;;
53751;SDS011;41095;53.090;6.692;2022-11-20T06:41:12;10.35;;;7.63;;
53751;SDS011;41095;53.090;6.692;2022-11-20T06:43:39;10.55;;;8.43;;
53751;SDS011;41095;53.090;6.692;2022-11-20T06:46:05;9.00;;;7.80;;
53751;SDS011;41095;53.090;6.692;2022-11-20T06:48:31;10.18;;;8.07;;
53751;SDS011;41095;53.090;6.692;2022-11-20T06:50:57;10.45;;;8.40;;
53751;SDS011;41095;53.090;6.692;2022-11-20T06:53:23;10.70;;;7.53;;
53751;SDS011;41095;53.090;6.692;2022-11-20T06:55:49;8.90;;;6.85;;
53751;SDS011;41095;53.090;6.692;2022-11-20T06:58:16;9.43;;;6.60;;
53751;SDS011;41095;53.090;6.692;2022-11-20T07:00:42;13.23;;;7.40;;
53751;SDS011;41095;53.090;6.692;2022-11-20T07:03:08;10.70;;;8.15;;
53751;SDS011;41095;53.090;6.692;2022-11-20T07:05:35;11.45;;;9.02;;
53751;SDS011;41095;53.090;6.692;2022-11-20T07:08:02;11.20;;;8.55;;
53751;SDS011;41095;53.090;6.692;2022-11-20T07:10:28;9.48;;;7.50;;
53751;SDS011;41095;53.090;6.692;2022-11-20T07:12:53;10.80;;;7.35;;
53751;SDS011;41095;53.090;6.692;2022-11-20T07:15:20;11.57;;;9.20;;
53751;SDS011;41095;53.090;6.692;2022-11-20T07:17:47;11.63;;;8.30;;
53751;SDS011;41095;53.090;6.692;2022-11-20T07:20:14;12.23;;;8.25;;
53751;SDS011;41095;53.090;6.692;2022-11-20T07:22:40;11.07;;;8.30;;
53751;SDS011;41095;53.090;6.692;2022-11-20T07:25:06;9.73;;;8.18;;
53751;SDS011;41095;53.090;6.692;2022-11-20T07:27:33;10.02;;;8.05;;
53751;SDS011;41095;53.090;6.692;2022-11-20T07:29:59;10.32;;;9.02;;
53751;SDS011;41095;53.090;6.692;2022-11-20T07:32:25;13.40;;;9.10;;
53751;SDS011;41095;53.090;6.692;2022-11-20T07:34:51;9.93;;;8.43;;
53751;SDS011;41095;53.090;6.692;2022-11-20T07:37:17;9.25;;;8.23;;
53751;SDS011;41095;53.090;6.692;2022-11-20T07:39:42;12.18;;;8.75;;
53751;SDS011;41095;53.090;6.692;2022-11-20T07:42:08;11.70;;;8.43;;
53751;SDS011;41095;53.090;6.692;2022-11-20T07:44:34;11.55;;;8.27;;
53751;SDS011;41095;53.090;6.692;2022-11-20T07:47:01;13.77;;;9.40;;
53751;SDS011;41095;53.090;6.692;2022-11-20T07:49:27;13.07;;;9.27;;
53751;SDS011;41095;53.090;6.692;2022-11-20T07:51:53;9.32;;;7.93;;
53751;SDS011;41095;53.090;6.692;2022-11-20T07:54:19;10.20;;;9.02;;
53751;SDS011;41095;53.090;6.692;2022-11-20T07:56:46;11.02;;;8.00;;
53751;SDS011;41095;53.090;6.692;2022-11-20T07:59:12;11.35;;;9.15;;
53751;SDS011;41095;53.090;6.692;2022-11-20T08:01:40;11.55;;;8.50;;
53751;SDS011;41095;53.090;6.692;2022-11-20T08:04:06;10.65;;;7.78;;
53751;SDS011;41095;53.090;6.692;2022-11-20T08:06:32;11.27;;;8.32;;
53751;SDS011;41095;53.090;6.692;2022-11-20T08:08:58;9.75;;;7.45;;
53751;SDS011;41095;53.090;6.692;2022-11-20T08:11:23;9.38;;;8.00;;
53751;SDS011;41095;53.090;6.692;2022-11-20T08:14:08;10.18;;;7.68;;
53751;SDS011;41095;53.090;6.692;2022-11-20T08:16:37;10.27;;;8.07;;
53751;SDS011;41095;53.090;6.692;2022-11-20T08:19:07;9.85;;;8.18;;
53751;SDS011;41095;53.090;6.692;2022-11-20T08:21:33;9.93;;;8.15;;
53751;SDS011;41095;53.090;6.692;2022-11-20T08:23:59;9.00;;;7.93;;
53751;SDS011;41095;53.090;6.692;2022-11-20T08:26:25;10.38;;;7.90;;
53751;SDS011;41095;53.090;6.692;2022-11-20T08:28:54;14.18;;;9.15;;
53751;SDS011;41095;53.090;6.692;2022-11-20T08:31:21;9.95;;;7.63;;
53751;SDS011;41095;53.090;6.692;2022-11-20T08:33:48;9.82;;;7.57;;
53751;SDS011;41095;53.090;6.692;2022-11-20T08:36:14;10.77;;;8.43;;
53751;SDS011;41095;53.090;6.692;2022-11-20T08:38:40;10.48;;;8.00;;
53751;SDS011;41095;53.090;6.692;2022-11-20T08:41:05;9.80;;;8.10;;
53751;SDS011;41095;53.090;6.692;2022-11-20T08:43:53;11.18;;;8.65;;
53751;SDS011;41095;53.090;6.692;2022-11-20T08:46:23;12.38;;;9.88;;
53751;SDS011;41095;53.090;6.692;2022-11-20T08:48:50;7.95;;;7.15;;
53751;SDS011;41095;53.090;6.692;2022-11-20T08:51:16;10.98;;;8.35;;
53751;SDS011;41095;53.090;6.692;2022-11-20T08:53:43;12.63;;;8.85;;
53751;SDS011;41095;53.090;6.692;2022-11-20T08:56:08;10.85;;;7.65;;
53751;SDS011;41095;53.090;6.692;2022-11-20T08:58:34;9.13;;;8.20;;
53751;SDS011;41095;53.090;6.692;2022-11-20T09:01:01;11.52;;;7.95;;
53751;SDS011;41095;53.090;6.692;2022-11-20T09:03:26;11.25;;;8.50;;
53751;SDS011;41095;53.090;6.692;2022-11-20T09:06:03;11.43;;;8.90;;
53751;SDS011;41095;53.090;6.692;2022-11-20T09:08:30;7.82;;;7.00;;
53751;SDS011;41095;53.090;6.692;2022-11-20T09:10:56;8.45;;;6.35;;
53751;SDS011;41095;53.090;6.692;2022-11-20T09:13:23;10.32;;;7.78;;
53751;SDS011;41095;53.090;6.692;2022-11-20T09:16:00;9.52;;;7.45;;
53751;SDS011;41095;53.090;6.692;2022-11-20T09:18:28;8.93;;;7.40;;
53751;SDS011;41095;53.090;6.692;2022-11-20T09:20:57;9.27;;;7.20;;
53751;SDS011;41095;53.090;6.692;2022-11-20T09:23:23;7.38;;;6.05;;
53751;SDS011;41095;53.090;6.692;2022-11-20T09:25:50;11.30;;;7.70;;
53751;SDS011;41095;53.090;6.692;2022-11-20T09:28:16;9.95;;;7.97;;
53751;SDS011;41095;53.090;6.692;2022-11-20T09:30:43;10.43;;;7.95;;
53751;SDS011;41095;53.090;6.692;2022-11-20T09:33:09;15.68;;;8.60;;
53751;SDS011;41095;53.090;6.692;2022-11-20T09:35:35;9.57;;;6.97;;
53751;SDS011;41095;53.090;6.692;2022-11-20T09:38:04;10.43;;;7.30;;
53751;SDS011;41095;53.090;6.692;2022-11-20T09:40:31;10.38;;;8.38;;
53751;SDS011;41095;53.090;6.692;2022-11-20T09:45:50;12.05;;;7.60;;
53751;SDS011;41095;53.090;6.692;2022-11-20T09:53:55;10.30;;;7.87;;
53751;SDS011;41095;53.090;6.692;2022-11-20T09:56:26;10.52;;;7.15;;
53751;SDS011;41095;53.090;6.692;2022-11-20T09:58:57;9.93;;;6.22;;
53751;SDS011;41095;53.090;6.692;2022-11-20T10:01:29;9.32;;;6.60;;
53751;SDS011;41095;53.090;6.692;2022-11-20T10:06:30;8.25;;;6.38;;
53751;SDS011;41095;53.090;6.692;2022-11-20T10:09:52;8.50;;;6.50;;
53751;SDS011;41095;53.090;6.692;2022-11-20T10:14:50;8.77;;;7.07;;
53751;SDS011;41095;53.090;6.692;2022-11-20T10:17:47;11.65;;;6.90;;
53751;SDS011;41095;53.090;6.692;2022-11-20T10:26:16;10.32;;;7.72;;
53751;SDS011;41095;53.090;6.692;2022-11-20T10:29:13;10.10;;;7.78;;
53751;SDS011;41095;53.090;6.692;2022-11-20T10:31:49;10.50;;;8.82;;
53751;SDS011;41095;53.090;6.692;2022-11-20T10:37:13;9.02;;;6.85;;
53751;SDS011;41095;53.090;6.692;2022-11-20T10:42:30;6.57;;;5.88;;
53751;SDS011;41095;53.090;6.692;2022-11-20T10:45:03;6.90;;;5.97;;
53751;SDS011;41095;53.090;6.692;2022-11-20T10:47:58;8.65;;;6.53;;
53751;SDS011;41095;53.090;6.692;2022-11-20T10:50:32;9.10;;;7.30;;
53751;SDS011;41095;53.090;6.692;2022-11-20T10:55:50;10.30;;;6.93;;
53751;SDS011;41095;53.090;6.692;2022-11-20T10:58:42;7.78;;;5.65;;
53751;SDS011;41095;53.090;6.692;2022-11-20T11:01:27;6.50;;;5.63;;
53751;SDS011;41095;53.090;6.692;2022-11-20T11:03:54;8.02;;;5.75;;
53751;SDS011;41095;53.090;6.692;2022-11-20T11:06:26;9.32;;;6.20;;
53751;SDS011;41095;53.090;6.692;2022-11-20T11:08:53;7.22;;;5.90;;
53751;SDS011;41095;53.090;6.692;2022-11-20T11:11:24;9.90;;;6.20;;
53751;SDS011;41095;53.090;6.692;2022-11-20T11:13:52;8.00;;;5.70;;
53751;SDS011;41095;53.090;6.692;2022-11-20T11:16:22;7.90;;;5.80;;
53751;SDS011;41095;53.090;6.692;2022-11-20T11:18:49;7.20;;;5.40;;
53751;SDS011;41095;53.090;6.692;2022-11-20T11:21:25;6.07;;;5.18;;
53751;SDS011;41095;53.090;6.692;2022-11-20T11:23:59;6.72;;;5.20;;
53751;SDS011;41095;53.090;6.692;2022-11-20T11:26:26;8.07;;;6.15;;
53751;SDS011;41095;53.090;6.692;2022-11-20T11:28:56;7.28;;;5.65;;
53751;SDS011;41095;53.090;6.692;2022-11-20T11:31:28;8.60;;;6.20;;
53751;SDS011;41095;53.090;6.692;2022-11-20T11:34:04;6.38;;;5.45;;
53751;SDS011;41095;53.090;6.692;2022-11-20T11:36:30;7.60;;;5.13;;
53751;SDS011;41095;53.090;6.692;2022-11-20T11:38:58;6.68;;;5.43;;
53751;SDS011;41095;53.090;6.692;2022-11-20T11:41:25;7.32;;;4.95;;
53751;SDS011;41095;53.090;6.692;2022-11-20T11:43:57;6.13;;;4.88;;
53751;SDS011;41095;53.090;6.692;2022-11-20T11:46:52;7.22;;;5.25;;
53751;SDS011;41095;53.090;6.692;2022-11-20T11:49:19;7.63;;;6.63;;
53751;SDS011;41095;53.090;6.692;2022-11-20T11:57:20;6.78;;;4.78;;
53751;SDS011;41095;53.090;6.692;2022-11-20T12:07:50;7.03;;;5.60;;
53751;SDS011;41095;53.090;6.692;2022-11-20T12:13:02;5.47;;;4.95;;
53751;SDS011;41095;53.090;6.692;2022-11-20T12:15:36;6.07;;;4.85;;
53751;SDS011;41095;53.090;6.692;2022-11-20T12:18:09;5.20;;;4.85;;
53751;SDS011;41095;53.090;6.692;2022-11-20T12:23:42;7.53;;;4.28;;
53751;SDS011;41095;53.090;6.692;2022-11-20T12:32:04;7.38;;;4.55;;
53751;SDS011;41095;53.090;6.692;2022-11-20T12:43:10;5.32;;;4.25;;
53751;SDS011;41095;53.090;6.692;2022-11-20T12:51:48;6.13;;;4.20;;
53751;SDS011;41095;53.090;6.692;2022-11-20T13:02:36;7.10;;;5.18;;
53751;SDS011;41095;53.090;6.692;2022-11-20T13:05:17;7.78;;;5.32;;
53751;SDS011;41095;53.090;6.692;2022-11-20T13:07:46;5.80;;;4.95;;
53751;SDS011;41095;53.090;6.692;2022-11-20T13:10:23;7.72;;;5.55;;
53751;SDS011;41095;53.090;6.692;2022-11-20T13:13:23;5.28;;;4.55;;
53751;SDS011;41095;53.090;6.692;2022-11-20T13:16:14;5.63;;;4.70;;
53751;SDS011;41095;53.090;6.692;2022-11-20T13:18:50;7.30;;;5.53;;
53751;SDS011;41095;53.090;6.692;2022-11-20T13:21:23;6.25;;;5.40;;
53751;SDS011;41095;53.090;6.692;2022-11-20T13:24:27;9.82;;;5.95;;
53751;SDS011;41095;53.090;6.692;2022-11-20T13:29:46;8.27;;;5.47;;
53751;SDS011;41095;53.090;6.692;2022-11-20T13:32:24;8.20;;;5.95;;
53751;SDS011;41095;53.090;6.692;2022-11-20T13:34:53;7.38;;;5.28;;
53751;SDS011;41095;53.090;6.692;2022-11-20T13:37:25;7.20;;;5.07;;
53751;SDS011;41095;53.090;6.692;2022-11-20T13:39:51;5.82;;;5.18;;
53751;SDS011;41095;53.090;6.692;2022-11-20T13:42:23;5.35;;;4.80;;
53751;SDS011;41095;53.090;6.692;2022-11-20T13:44:53;7.20;;;4.93;;
53751;SDS011;41095;53.090;6.692;2022-11-20T13:47:24;7.85;;;6.10;;
53751;SDS011;41095;53.090;6.692;2022-11-20T13:49:51;5.13;;;4.60;;
53751;SDS011;41095;53.090;6.692;2022-11-20T13:54:52;6.43;;;5.10;;
53751;SDS011;41095;53.090;6.692;2022-11-20T14:00:11;9.25;;;5.95;;
53751;SDS011;41095;53.090;6.692;2022-11-20T14:02:41;7.60;;;5.50;;
53751;SDS011;41095;53.090;6.692;2022-11-20T14:05:26;6.20;;;5.20;;
53751;SDS011;41095;53.090;6.692;2022-11-20T14:07:51;6.47;;;4.88;;
53751;SDS011;41095;53.090;6.692;2022-11-20T14:10:19;9.48;;;5.75;;
53751;SDS011;41095;53.090;6.692;2022-11-20T14:12:45;6.97;;;5.68;;
53751;SDS011;41095;53.090;6.692;2022-11-20T14:15:23;7.93;;;5.40;;
53751;SDS011;41095;53.090;6.692;2022-11-20T14:17:51;9.10;;;5.57;;
53751;SDS011;41095;53.090;6.692;2022-11-20T14:20:16;7.72;;;5.43;;
53751;SDS011;41095;53.090;6.692;2022-11-20T14:22:48;6.78;;;5.68;;
53751;SDS011;41095;53.090;6.692;2022-11-20T14:27:42;7.57;;;6.20;;
53751;SDS011;41095;53.090;6.692;2022-11-20T14:30:12;8.07;;;6.43;;
53751;SDS011;41095;53.090;6.692;2022-11-20T14:32:44;7.07;;;6.15;;
53751;SDS011;41095;53.090;6.692;2022-11-20T14:35:19;9.30;;;6.07;;
53751;SDS011;41095;53.090;6.692;2022-11-20T14:37:50;11.40;;;7.38;;
53751;SDS011;41095;53.090;6.692;2022-11-20T14:43:15;8.27;;;6.45;;
53751;SDS011;41095;53.090;6.692;2022-11-20T14:45:44;9.75;;;6.57;;
53751;SDS011;41095;53.090;6.692;2022-11-20T14:48:13;8.80;;;6.70;;
53751;SDS011;41095;53.090;6.692;2022-11-20T14:50:40;11.13;;;7.05;;
53751;SDS011;41095;53.090;6.692;2022-11-20T14:53:06;10.43;;;7.53;;
53751;SDS011;41095;53.090;6.692;2022-11-20T14:55:32;10.63;;;6.68;;
53751;SDS011;41095;53.090;6.692;2022-11-20T14:58:19;9.95;;;7.38;;
53751;SDS011;41095;53.090;6.692;2022-11-20T15:00:53;8.40;;;7.43;;
53751;SDS011;41095;53.090;6.692;2022-11-20T15:03:30;11.38;;;7.82;;
53751;SDS011;41095;53.090;6.692;2022-11-20T15:06:03;10.88;;;7.95;;
53751;SDS011;41095;53.090;6.692;2022-11-20T15:08:35;14.30;;;8.23;;
53751;SDS011;41095;53.090;6.692;2022-11-20T15:11:01;8.32;;;7.03;;
53751;SDS011;41095;53.090;6.692;2022-11-20T15:13:37;11.40;;;8.32;;
53751;SDS011;41095;53.090;6.692;2022-11-20T15:16:08;8.82;;;7.45;;
53751;SDS011;41095;53.090;6.692;2022-11-20T15:18:43;11.40;;;7.28;;
53751;SDS011;41095;53.090;6.692;2022-11-20T15:21:10;10.35;;;7.90;;
53751;SDS011;41095;53.090;6.692;2022-11-20T15:23:40;11.07;;;8.10;;
53751;SDS011;41095;53.090;6.692;2022-11-20T15:26:06;12.10;;;7.88;;
53751;SDS011;41095;53.090;6.692;2022-11-20T15:28:34;11.85;;;8.63;;
53751;SDS011;41095;53.090;6.692;2022-11-20T15:31:02;10.57;;;7.75;;
53751;SDS011;41095;53.090;6.692;2022-11-20T15:33:29;11.60;;;8.60;;
53751;SDS011;41095;53.090;6.692;2022-11-20T15:35:55;10.32;;;8.65;;
53751;SDS011;41095;53.090;6.692;2022-11-20T15:38:22;13.10;;;8.85;;
53751;SDS011;41095;53.090;6.692;2022-11-20T15:40:48;12.60;;;8.85;;
53751;SDS011;41095;53.090;6.692;2022-11-20T15:43:13;14.23;;;9.38;;
53751;SDS011;41095;53.090;6.692;2022-11-20T15:45:49;10.20;;;7.97;;
53751;SDS011;41095;53.090;6.692;2022-11-20T15:48:19;9.90;;;8.77;;
53751;SDS011;41095;53.090;6.692;2022-11-20T15:50:52;10.82;;;8.18;;
53751;SDS011;41095;53.090;6.692;2022-11-20T15:53:23;10.73;;;8.70;;
53751;SDS011;41095;53.090;6.692;2022-11-20T15:55:48;11.02;;;8.07;;
53751;SDS011;41095;53.090;6.692;2022-11-20T15:58:15;15.98;;;9.07;;
53751;SDS011;41095;53.090;6.692;2022-11-20T16:00:42;13.27;;;8.52;;
53751;SDS011;41095;53.090;6.692;2022-11-20T16:03:11;12.38;;;9.13;;
53751;SDS011;41095;53.090;6.692;2022-11-20T16:05:38;10.63;;;8.43;;
53751;SDS011;41095;53.090;6.692;2022-11-20T16:08:04;14.07;;;9.65;;
53751;SDS011;41095;53.090;6.692;2022-11-20T16:10:30;10.32;;;8.20;;
53751;SDS011;41095;53.090;6.692;2022-11-20T16:12:55;13.98;;;10.43;;
53751;SDS011;41095;53.090;6.692;2022-11-20T16:15:39;12.32;;;8.70;;
53751;SDS011;41095;53.090;6.692;2022-11-20T16:18:15;11.85;;;9.05;;
53751;SDS011;41095;53.090;6.692;2022-11-20T16:20:43;9.43;;;7.80;;
53751;SDS011;41095;53.090;6.692;2022-11-20T16:23:13;12.38;;;8.85;;
53751;SDS011;41095;53.090;6.692;2022-11-20T16:25:40;10.10;;;8.15;;
53751;SDS011;41095;53.090;6.692;2022-11-20T16:28:07;10.45;;;9.23;;
53751;SDS011;41095;53.090;6.692;2022-11-20T16:30:33;11.80;;;8.88;;